Terminal Aerodrome Forecast
Issued by NWS Northern Indiana

Home | Current Version | Previous Version | Graphics & Text | Print | Product List | Glossary On
Versions: 1 2 3 4 5 6 7 8 9 10 11 12 13 14 15
000
FTUS43 KIWX 182320
TAFFWA
TAF
KFWA 182320Z 1900/1924 13008KT P6SM BKN250 WS020/18045KT
     FM190900 19010KT 5SM -RA BR OVC025 WS020/23055KT
     FM191400 19008KT 2SM RA BR OVC007 WS020/23055KT=

USA.gov is the U.S. government's official web portal to all federal, state and local government web resources and services.